Time;durP1;ratioP1;P1;durP2;ratioP2;P2;SDS_P1;SDS_P2;PMS_P1;PMS_P2;Temp;Humidity;BMP_temperature;BMP_pressure;BME280_temperature;BME280_humidity;BME280_pressure;Samples;Min_cycle;Max_cycle;Signal;HPM_P1;HPM_P2
2021/05/10 00:01:13;;;;;;;0.57;0.57;;;18.80;68.30;;;;;;5037143;28;20374;-75
2021/05/10 00:03:39;;;;;;;0.88;0.88;;;18.80;68.30;;;;;;5036973;28;20462;-75
2021/05/10 00:06:04;;;;;;;0.80;0.80;;;18.80;68.30;;;;;;5036645;28;20124;-75
2021/05/10 00:08:30;;;;;;;1.25;1.15;;;18.80;68.30;;;;;;5036905;28;20079;-75
2021/05/10 00:10:56;;;;;;;1.10;1.00;;;18.80;68.40;;;;;;5036936;28;20022;-75
2021/05/10 00:13:22;;;;;;;0.77;0.77;;;18.80;68.50;;;;;;5036995;28;20067;-76
2021/05/10 00:15:49;;;;;;;1.00;1.00;;;18.70;68.60;;;;;;5041479;28;20136;-76
2021/05/10 00:18:15;;;;;;;0.90;0.80;;;18.70;68.70;;;;;;5056860;28;20037;-76
2021/05/10 00:20:45;;;;;;;1.30;1.20;;;18.70;68.80;;;;;;5055970;28;20028;-75
2021/05/10 00:23:14;;;;;;;0.90;0.90;;;18.70;68.90;;;;;;5056626;28;20487;-76
2021/05/10 00:25:40;;;;;;;1.10;0.88;;;18.70;68.90;;;;;;5056603;28;20078;-76
2021/05/10 00:28:07;;;;;;;1.38;1.08;;;18.70;68.80;;;;;;5056663;28;20021;-76
2021/05/10 00:30:33;;;;;;;0.68;0.68;;;18.70;68.80;;;;;;5056479;28;20021;-75
2021/05/10 00:33:00;;;;;;;1.20;0.93;;;18.70;68.80;;;;;;5054683;28;20021;-76
2021/05/10 00:35:25;;;;;;;0.80;0.80;;;18.70;68.90;;;;;;5038639;28;20526;-75
2021/05/10 00:37:52;;;;;;;0.85;0.77;;;18.70;68.90;;;;;;5056305;28;20029;-75
2021/05/10 00:40:20;;;;;;;1.55;1.10;;;18.70;68.90;;;;;;5056450;28;20132;-75
2021/05/10 00:42:46;;;;;;;0.93;0.93;;;18.70;68.90;;;;;;5056254;28;20388;-76
2021/05/10 00:45:12;;;;;;;1.05;0.95;;;18.70;68.90;;;;;;5056175;28;20037;-76
2021/05/10 00:47:38;;;;;;;0.90;0.90;;;18.70;69.00;;;;;;5055708;28;20025;-76
2021/05/10 00:50:06;;;;;;;0.70;0.70;;;18.70;69.10;;;;;;5056212;28;20036;-75
2021/05/10 00:52:32;;;;;;;1.10;1.00;;;18.70;69.10;;;;;;5056488;28;20127;-76
2021/05/10 00:54:58;;;;;;;0.75;0.75;;;18.70;69.00;;;;;;5056335;28;20405;-75
2021/05/10 00:57:23;;;;;;;0.80;0.80;;;18.70;69.10;;;;;;5055973;28;20028;-76
2021/05/10 00:59:51;;;;;;;1.48;0.85;;;18.70;69.10;;;;;;5056098;28;20461;-76
2021/05/10 01:02:18;;;;;;;1.13;1.02;;;18.70;69.10;;;;;;5055567;28;20022;-75
2021/05/10 01:04:44;;;;;;;1.05;0.95;;;18.70;69.10;;;;;;5055677;28;20100;-75
2021/05/10 01:07:10;;;;;;;0.80;0.80;;;18.60;69.20;;;;;;5054641;28;20032;-75
2021/05/10 01:09:36;;;;;;;0.98;0.93;;;18.60;69.20;;;;;;5054475;28;20021;-76
2021/05/10 01:12:01;;;;;;;1.10;1.10;;;18.70;69.30;;;;;;5055902;28;20131;-75
2021/05/10 01:14:27;;;;;;;1.05;0.98;;;18.70;69.30;;;;;;5055682;28;20029;-75
2021/05/10 01:16:52;;;;;;;1.15;1.05;;;18.70;69.30;;;;;;5055019;28;20501;-77
2021/05/10 01:19:20;;;;;;;0.80;0.80;;;18.70;69.30;;;;;;5055539;28;20491;-76
2021/05/10 01:21:48;;;;;;;0.70;0.70;;;18.70;69.30;;;;;;5055576;28;20063;-76
2021/05/10 01:24:14;;;;;;;0.70;0.70;;;18.60;69.40;;;;;;5055713;28;20025;-76
2021/05/10 01:26:39;;;;;;;0.70;0.70;;;18.60;69.40;;;;;;5055407;28;20405;-76
2021/05/10 01:29:05;;;;;;;0.77;0.70;;;18.60;69.50;;;;;;5055407;28;20029;-76
2021/05/10 01:31:30;;;;;;;0.60;0.60;;;18.60;69.50;;;;;;5055083;28;20100;-75
2021/05/10 01:33:56;;;;;;;0.80;0.80;;;18.60;69.50;;;;;;5055232;28;20105;-76
2021/05/10 01:36:22;;;;;;;0.88;0.88;;;18.60;69.50;;;;;;5055365;28;20033;-75
2021/05/10 01:38:48;;;;;;;0.80;0.80;;;18.50;69.60;;;;;;5055554;28;20025;-75
2021/05/10 01:41:13;;;;;;;1.27;1.17;;;18.40;69.70;;;;;;5055341;28;20481;-76
2021/05/10 01:43:39;;;;;;;0.90;0.77;;;18.40;69.80;;;;;;5055221;28;20013;-75
2021/05/10 01:46:04;;;;;;;1.00;0.90;;;18.40;69.90;;;;;;5055311;28;20025;-76
2021/05/10 01:48:30;;;;;;;0.85;0.82;;;18.30;69.80;;;;;;5054032;28;20070;-75
2021/05/10 01:50:55;;;;;;;0.95;0.80;;;18.30;69.90;;;;;;5055161;28;20430;-75
2021/05/10 01:53:21;;;;;;;0.57;0.57;;;18.30;69.90;;;;;;5040738;28;20472;-75
2021/05/10 01:55:47;;;;;;;0.57;0.57;;;18.30;69.90;;;;;;5054893;28;20374;-75
2021/05/10 01:58:12;;;;;;;0.70;0.65;;;18.30;69.90;;;;;;5054727;28;20048;-76
2021/05/10 02:00:43;;;;;;;0.77;0.77;;;18.30;70.20;;;;;;5054646;28;20385;-75
2021/05/10 02:03:17;;;;;;;0.60;0.60;;;18.20;70.00;;;;;;5054866;28;20059;-75
2021/05/10 02:05:44;;;;;;;0.70;0.70;;;18.30;70.10;;;;;;5054713;28;20025;-76
2021/05/10 02:08:12;;;;;;;0.60;0.60;;;18.20;70.10;;;;;;5054933;28;20104;-75
2021/05/10 02:10:46;;;;;;;1.27;0.90;;;18.20;70.20;;;;;;5036851;28;20115;-76
2021/05/10 02:13:20;;;;;;;0.88;0.65;;;18.20;70.10;;;;;;5054532;28;20056;-76
2021/05/10 02:15:48;;;;;;;0.70;0.70;;;18.10;70.10;;;;;;5053925;28;20101;-77
2021/05/10 02:18:19;;;;;;;0.60;0.60;;;18.10;70.10;;;;;;5054511;28;20473;-76
2021/05/10 02:20:46;;;;;;;0.70;0.70;;;18.00;70.20;;;;;;5054013;28;20029;-76
2021/05/10 02:23:18;;;;;;;0.43;0.43;;;18.00;70.30;;;;;;5054411;28;20029;-75
2021/05/10 02:25:46;;;;;;;0.57;0.55;;;18.00;70.30;;;;;;5054469;28;20025;-76
2021/05/10 02:28:13;;;;;;;1.00;0.95;;;18.00;70.40;;;;;;5054278;28;20044;-76
2021/05/10 02:30:44;;;;;;;0.70;0.70;;;18.00;70.40;;;;;;5053762;28;20114;-76
2021/05/10 02:33:15;;;;;;;0.70;0.70;;;17.90;70.40;;;;;;5054135;28;20021;-75
2021/05/10 02:35:41;;;;;;;1.00;0.90;;;17.90;70.60;;;;;;5054203;28;20496;-76
2021/05/10 02:38:08;;;;;;;0.90;0.80;;;17.90;70.60;;;;;;5054048;28;20053;-75
2021/05/10 02:40:34;;;;;;;0.60;0.60;;;17.90;70.60;;;;;;5054003;28;20029;-76
2021/05/10 02:42:59;;;;;;;0.57;0.57;;;17.90;70.60;;;;;;5054117;28;20364;-76
2021/05/10 02:45:25;;;;;;;0.80;0.70;;;17.90;70.60;;;;;;5053484;28;20057;-76
2021/05/10 02:47:51;;;;;;;0.80;0.80;;;17.80;70.60;;;;;;5054194;28;20469;-76
2021/05/10 02:50:19;;;;;;;0.60;0.60;;;17.90;70.80;;;;;;5053927;28;20083;-76
2021/05/10 02:52:46;;;;;;;0.80;0.80;;;17.80;70.80;;;;;;5035844;28;20039;-76
2021/05/10 02:55:12;;;;;;;0.70;0.70;;;17.80;70.80;;;;;;5053479;28;20033;-75
2021/05/10 02:57:37;;;;;;;0.80;0.80;;;17.80;70.90;;;;;;5053690;28;20031;-76
2021/05/10 03:00:07;;;;;;;0.88;0.80;;;17.80;71.00;;;;;;5053311;28;20469;-76
2021/05/10 03:02:33;;;;;;;0.80;0.80;;;17.80;71.00;;;;;;5053590;28;20056;-76
2021/05/10 03:04:59;;;;;;;0.80;0.80;;;17.80;71.00;;;;;;5035737;28;20063;-75
2021/05/10 03:07:24;;;;;;;1.05;0.90;;;17.70;71.00;;;;;;5053748;28;20021;-74
2021/05/10 03:09:50;;;;;;;0.70;0.70;;;17.70;70.90;;;;;;5053344;28;20029;-75
2021/05/10 03:12:16;;;;;;;0.70;0.70;;;17.70;70.90;;;;;;5053507;28;20017;-74
2021/05/10 03:14:41;;;;;;;0.75;0.52;;;17.70;70.90;;;;;;5053094;28;20029;-76
2021/05/10 03:17:07;;;;;;;0.73;0.60;;;17.70;70.90;;;;;;5053148;28;20037;-76
2021/05/10 03:19:32;;;;;;;0.60;0.60;;;17.70;70.90;;;;;;5053286;28;20036;-76
2021/05/10 03:21:58;;;;;;;1.25;0.50;;;17.70;71.00;;;;;;5053416;28;20032;-76
2021/05/10 03:24:24;;;;;;;0.30;0.30;;;17.70;71.00;;;;;;5053275;28;20424;-76
2021/05/10 03:26:52;;;;;;;0.40;0.40;;;17.60;71.00;;;;;;5052832;28;20053;-77
2021/05/10 03:29:18;;;;;;;0.63;0.50;;;17.60;71.20;;;;;;5052078;28;20473;-75
2021/05/10 03:31:43;;;;;;;0.47;0.47;;;17.60;71.20;;;;;;5052273;28;20105;-75
2021/05/10 03:34:09;;;;;;;0.50;0.50;;;17.60;71.20;;;;;;5053125;28;20025;-75
2021/05/10 03:36:34;;;;;;;0.40;0.40;;;17.70;71.20;;;;;;5053420;28;20025;-74
2021/05/10 03:39:04;;;;;;;0.75;0.68;;;17.70;71.00;;;;;;5053046;28;20050;-75
2021/05/10 03:41:30;;;;;;;0.90;0.50;;;17.80;70.90;;;;;;5052532;28;20473;-74
2021/05/10 03:43:57;;;;;;;0.45;0.43;;;17.90;70.70;;;;;;5053216;28;20028;-76
2021/05/10 03:46:23;;;;;;;0.50;0.50;;;17.90;70.50;;;;;;5053048;28;20021;-74
2021/05/10 03:48:48;;;;;;;0.50;0.50;;;18.00;70.40;;;;;;5053036;28;20028;-76
2021/05/10 03:51:14;;;;;;;0.47;0.47;;;18.00;70.20;;;;;;5053018;28;20048;-75
2021/05/10 03:53:39;;;;;;;0.40;0.40;;;18.10;70.80;;;;;;5054694;28;20047;-76
2021/05/10 03:56:05;;;;;;;0.35;0.35;;;18.10;70.10;;;;;;5034598;28;20029;-75
2021/05/10 03:58:30;;;;;;;0.40;0.40;;;18.10;70.10;;;;;;5052812;28;20481;-76
2021/05/10 04:00:56;;;;;;;0.30;0.30;;;18.10;70.10;;;;;;5052918;28;20074;-76
2021/05/10 04:03:26;;;;;;;0.38;0.38;;;18.10;70.10;;;;;;5051700;28;20021;-77
2021/05/10 04:06:11;;;;;;;0.85;0.60;;;18.20;70.10;;;;;;5053175;28;20032;-76
2021/05/10 04:09:10;;;;;;;0.35;0.35;;;18.20;69.90;;;;;;5052728;28;20040;-76
2021/05/10 04:14:20;;;;;;;0.30;0.30;;;18.40;69.50;;;;;;5053273;28;20037;-75
2021/05/10 04:16:46;;;;;;;0.82;0.50;;;18.50;69.30;;;;;;5052829;28;20048;-76
2021/05/10 04:19:11;;;;;;;0.40;0.40;;;18.60;69.10;;;;;;5052681;28;20032;-76
2021/05/10 04:21:37;;;;;;;0.40;0.40;;;18.70;68.90;;;;;;5052504;28;20106;-77
2021/05/10 04:24:03;;;;;;;0.40;0.40;;;18.80;68.60;;;;;;5052826;28;20033;-76
2021/05/10 04:26:28;;;;;;;0.40;0.40;;;18.90;68.50;;;;;;5052411;28;20033;-77
2021/05/10 04:28:54;;;;;;;0.40;0.40;;;19.00;68.30;;;;;;5052734;28;20021;-76
2021/05/10 04:31:19;;;;;;;0.68;0.60;;;19.00;68.20;;;;;;5052620;28;20025;-77
2021/05/10 04:33:45;;;;;;;0.28;0.28;;;19.10;68.10;;;;;;5052674;28;20025;-79
2021/05/10 04:36:10;;;;;;;0.75;0.45;;;19.20;67.80;;;;;;5052542;28;20465;-77
2021/05/10 04:38:40;;;;;;;0.63;0.50;;;19.30;67.60;;;;;;5052667;28;20026;-77
2021/05/10 04:41:06;;;;;;;0.57;0.50;;;19.40;67.50;;;;;;5050864;28;20087;-77
2021/05/10 04:43:31;;;;;;;0.50;0.40;;;19.50;67.30;;;;;;5054016;28;20469;-76
2021/05/10 04:45:59;;;;;;;0.60;0.55;;;19.60;67.20;;;;;;5056357;28;20032;-75
2021/05/10 04:48:26;;;;;;;0.63;0.63;;;19.60;66.90;;;;;;5056146;28;20013;-77
2021/05/10 04:50:51;;;;;;;1.65;0.50;;;19.70;66.90;;;;;;5056120;28;20028;-80
2021/05/10 04:53:17;;;;;;;0.50;0.50;;;19.80;66.70;;;;;;5054835;28;20017;-77
2021/05/10 04:55:42;;;;;;;0.70;0.60;;;19.80;66.50;;;;;;5055433;28;20051;-77
2021/05/10 04:58:08;;;;;;;0.30;0.30;;;19.90;66.30;;;;;;5038100;28;20491;-78
2021/05/10 05:00:34;;;;;;;0.35;0.35;;;20.00;66.30;;;;;;5056246;28;20029;-78
2021/05/10 05:02:59;;;;;;;0.63;0.52;;;19.90;66.10;;;;;;5055867;28;20036;-83
2021/05/10 05:05:25;;;;;;;0.68;0.68;;;20.00;66.10;;;;;;5055965;28;20028;-80
2021/05/10 05:07:50;;;;;;;0.50;0.50;;;20.00;66.10;;;;;;5055932;28;20440;-79
2021/05/10 05:10:16;;;;;;;0.70;0.70;;;19.90;66.70;;;;;;5055378;28;20032;-77
2021/05/10 05:12:42;;;;;;;0.40;0.40;;;19.90;66.00;;;;;;5055874;28;20029;-77
2021/05/10 05:15:09;;;;;;;0.70;0.65;;;19.90;66.10;;;;;;5055765;28;20036;-80
2021/05/10 05:17:35;;;;;;;1.55;0.55;;;19.90;65.90;;;;;;5055642;28;20076;-82
2021/05/10 05:20:02;;;;;;;0.90;0.70;;;19.90;65.80;;;;;;5055774;28;20096;-79
2021/05/10 05:22:27;;;;;;;1.80;0.95;;;20.00;65.50;;;;;;5055720;28;20452;-80
2021/05/10 05:24:56;;;;;;;0.95;0.73;;;20.00;65.10;;;;;;5053670;28;20049;-79
2021/05/10 05:27:22;;;;;;;1.03;0.80;;;20.00;65.20;;;;;;5055685;28;20020;-82
2021/05/10 05:29:47;;;;;;;1.77;0.90;;;20.00;65.20;;;;;;5055631;28;20021;-79
2021/05/10 05:32:13;;;;;;;1.02;0.75;;;20.00;65.30;;;;;;5055893;28;20017;-79
2021/05/10 05:34:38;;;;;;;3.05;1.00;;;19.90;65.10;;;;;;5055681;28;20497;-83
2021/05/10 05:37:04;;;;;;;0.93;0.93;;;19.90;65.20;;;;;;5055517;28;20032;-80
2021/05/10 05:39:29;;;;;;;0.70;0.70;;;19.90;65.30;;;;;;5053698;28;20032;-79
2021/05/10 05:41:55;;;;;;;0.85;0.50;;;19.80;65.40;;;;;;5055511;28;20499;-80
2021/05/10 05:44:20;;;;;;;0.70;0.50;;;19.70;65.60;;;;;;5055346;28;20025;-79
2021/05/10 05:46:49;;;;;;;0.98;0.73;;;19.70;65.80;;;;;;5055167;28;20029;-81
2021/05/10 05:49:15;;;;;;;0.82;0.70;;;19.60;65.90;;;;;;5055259;28;20032;-80
2021/05/10 05:51:44;;;;;;;0.95;0.70;;;19.60;66.10;;;;;;5055873;28;20018;-85
2021/05/10 05:54:09;;;;;;;0.60;0.57;;;19.50;66.10;;;;;;5057886;28;20087;-84
2021/05/10 05:56:35;;;;;;;0.75;0.70;;;19.40;66.10;;;;;;5054903;28;20408;-84
2021/05/10 05:59:01;;;;;;;0.50;0.50;;;19.40;66.30;;;;;;5055760;28;20025;-83
2021/05/10 06:01:26;;;;;;;0.30;0.30;;;19.30;66.30;;;;;;5055297;28;20456;-81
2021/05/10 06:03:55;;;;;;;0.50;0.50;;;19.30;66.50;;;;;;5053792;28;20028;-80
2021/05/10 06:06:21;;;;;;;0.80;0.63;;;19.20;66.60;;;;;;5054706;28;20032;-85
2021/05/10 06:08:47;;;;;;;0.50;0.50;;;19.10;66.60;;;;;;5055126;28;20385;-78
2021/05/10 06:11:12;;;;;;;0.80;0.80;;;19.10;66.60;;;;;;5055247;28;20032;-85
2021/05/10 06:13:38;;;;;;;0.43;0.43;;;19.10;67.20;;;;;;5055039;28;20032;-84
2021/05/10 06:16:05;;;;;;;0.90;0.85;;;19.10;66.40;;;;;;5054714;28;20449;-83
2021/05/10 06:18:31;;;;;;;0.47;0.47;;;19.10;66.20;;;;;;5053709;28;20412;-81
2021/05/10 06:21:03;;;;;;;1.20;0.70;;;19.10;66.10;;;;;;5054517;28;20025;-80
2021/05/10 06:23:29;;;;;;;0.80;0.75;;;19.10;66.20;;;;;;5054953;28;20048;-84
2021/05/10 06:25:55;;;;;;;0.50;0.50;;;19.10;66.10;;;;;;5065101;28;20465;-82
2021/05/10 06:28:20;;;;;;;0.40;0.40;;;19.10;66.10;;;;;;5056773;28;20056;-82
2021/05/10 06:30:46;;;;;;;0.30;0.30;;;19.10;66.10;;;;;;5074653;28;20028;-84
2021/05/10 06:33:12;;;;;;;0.35;0.32;;;19.00;66.10;;;;;;5074476;28;20020;-79
2021/05/10 06:35:38;;;;;;;0.28;0.25;;;18.90;66.10;;;;;;5073873;28;20318;-85
2021/05/10 06:38:03;;;;;;;0.40;0.40;;;18.80;66.30;;;;;;5074241;28;20101;-79
2021/05/10 06:40:29;;;;;;;0.30;0.30;;;18.70;66.50;;;;;;5074134;28;20415;-79
2021/05/10 06:42:55;;;;;;;0.25;0.25;;;18.70;66.60;;;;;;5056328;28;20074;-79
2021/05/10 06:45:21;;;;;;;0.20;0.20;;;18.60;66.70;;;;;;5074012;28;20036;-79
2021/05/10 06:47:46;;;;;;;0.10;0.10;;;18.50;66.70;;;;;;5056033;28;20377;-79
2021/05/10 06:50:12;;;;;;;2.03;0.30;;;18.60;66.70;;;;;;5073494;28;20111;-80
2021/05/10 06:52:38;;;;;;;0.55;0.32;;;18.60;66.60;;;;;;5073688;28;20024;-79
2021/05/10 06:55:05;;;;;;;0.20;0.20;;;18.60;66.50;;;;;;5073851;28;20025;-81
2021/05/10 06:57:31;;;;;;;0.98;0.20;;;18.70;66.50;;;;;;5055862;28;20051;-81
2021/05/10 06:59:59;;;;;;;0.10;0.10;;;18.70;66.40;;;;;;5073819;28;20078;-80
2021/05/10 07:02:25;;;;;;;0.32;0.10;;;18.80;66.30;;;;;;5073583;28;20016;-78
2021/05/10 07:04:51;;;;;;;0.20;0.20;;;18.90;66.70;;;;;;5073243;28;20461;-80
2021/05/10 07:07:17;;;;;;;0.20;0.20;;;19.00;65.80;;;;;;5073574;28;20035;-80
2021/05/10 07:09:43;;;;;;;0.30;0.30;;;19.10;65.60;;;;;;5073789;28;20550;-80
2021/05/10 07:12:11;;;;;;;0.52;0.52;;;19.10;65.50;;;;;;5073650;28;20095;-81
2021/05/10 07:14:36;;;;;;;0.17;0.17;;;19.10;65.50;;;;;;5073253;28;20128;-80
2021/05/10 07:17:02;;;;;;;0.55;0.30;;;19.10;65.70;;;;;;5055386;28;20072;-78
2021/05/10 07:19:27;;;;;;;0.30;0.30;;;19.10;65.70;;;;;;5073016;28;20048;-79
2021/05/10 07:21:53;;;;;;;0.43;0.17;;;19.10;65.80;;;;;;5073533;28;20052;-80
2021/05/10 07:24:18;;;;;;;0.20;0.20;;;19.00;65.80;;;;;;5073496;28;20032;-81
2021/05/10 07:26:45;;;;;;;0.75;0.57;;;18.90;66.00;;;;;;5073314;28;20079;-84
2021/05/10 07:29:10;;;;;;;0.35;0.35;;;19.00;66.10;;;;;;5073356;28;20028;-81
2021/05/10 07:31:36;;;;;;;0.55;0.40;;;19.00;66.00;;;;;;5073414;28;20031;-81
2021/05/10 07:34:02;;;;;;;1.38;0.60;;;19.10;65.90;;;;;;5073013;28;20032;-82
2021/05/10 07:36:27;;;;;;;0.40;0.40;;;19.00;65.80;;;;;;5071071;28;20036;-80
2021/05/10 07:38:53;;;;;;;0.20;0.20;;;19.00;65.90;;;;;;5073176;28;20027;-82
2021/05/10 07:41:18;;;;;;;0.93;0.60;;;19.10;65.70;;;;;;5073250;28;20385;-80
2021/05/10 07:43:44;;;;;;;1.20;0.70;;;19.30;65.30;;;;;;5055457;28;20016;-78
2021/05/10 07:46:09;;;;;;;0.50;0.50;;;19.30;65.10;;;;;;5055060;28;20488;-82
2021/05/10 07:48:35;;;;;;;0.68;0.68;;;19.30;65.20;;;;;;5071160;28;20039;-80
2021/05/10 07:51:00;;;;;;;0.52;0.50;;;19.30;65.30;;;;;;5073210;28;20082;-81
2021/05/10 07:53:26;;;;;;;0.50;0.50;;;19.20;65.50;;;;;;5073165;28;20020;-81
2021/05/10 07:55:53;;;;;;;0.35;0.30;;;19.20;65.50;;;;;;5068306;28;20044;-82
2021/05/10 07:58:26;;;;;;;0.50;0.50;;;19.10;65.70;;;;;;5073172;28;20477;-78
2021/05/10 08:00:56;;;;;;;0.70;0.70;;;19.00;65.90;;;;;;5073059;28;20024;-82
2021/05/10 08:03:26;;;;;;;0.60;0.60;;;18.90;66.00;;;;;;5071888;28;20017;-80
2021/05/10 08:05:51;;;;;;;;;;;18.70;66.30;;;;;;5053796;28;20021;-81
2021/05/10 08:08:17;;;;;;;0.90;0.43;;;18.60;66.50;;;;;;5052181;28;19911;-82
2021/05/10 08:10:46;;;;;;;0.75;0.57;;;18.60;66.80;;;;;;5053182;28;20029;-79
2021/05/10 08:13:14;;;;;;;0.40;0.40;;;18.60;66.60;;;;;;5053001;28;20029;-82
2021/05/10 08:15:39;;;;;;;0.65;0.60;;;18.60;66.60;;;;;;5034753;28;20041;-81
2021/05/10 08:18:05;;;;;;;0.50;0.50;;;18.50;66.70;;;;;;5053303;28;20499;-79
2021/05/10 08:20:31;;;;;;;0.55;0.50;;;18.50;66.90;;;;;;5056709;28;20037;-80
2021/05/10 08:22:57;;;;;;;0.47;0.47;;;18.40;67.60;;;;;;5056739;28;20074;-81
2021/05/10 08:25:23;;;;;;;1.52;0.70;;;18.30;67.10;;;;;;5038715;28;20069;-79
2021/05/10 08:27:49;;;;;;;0.75;0.75;;;18.40;67.00;;;;;;5056944;28;20105;-80
2021/05/10 08:30:15;;;;;;;0.30;0.30;;;18.60;66.70;;;;;;5055533;28;20392;-79
2021/05/10 08:32:40;;;;;;;0.70;0.68;;;18.60;66.60;;;;;;5070846;28;20021;-78
2021/05/10 08:35:07;;;;;;;1.75;0.57;;;18.60;66.50;;;;;;5069010;28;20431;-77
2021/05/10 08:37:33;;;;;;;0.52;0.50;;;18.60;66.60;;;;;;5076363;28;20020;-80
2021/05/10 08:39:59;;;;;;;0.70;0.70;;;18.50;66.80;;;;;;5069297;28;20029;-84
2021/05/10 08:42:26;;;;;;;0.32;0.32;;;18.40;67.30;;;;;;5056456;28;20461;-79
2021/05/10 08:44:52;;;;;;;0.30;0.30;;;17.90;68.10;;;;;;5056263;28;20033;-79
2021/05/10 08:47:22;;;;;;;0.50;0.50;;;17.50;69.40;;;;;;5055810;28;20024;-79
2021/05/10 08:49:49;;;;;;;0.52;0.45;;;17.10;70.20;;;;;;5143851;23;20088;-80
2021/05/10 08:52:15;;;;;;;0.60;0.60;;;17.00;70.70;;;;;;5046462;28;20029;-79
2021/05/10 08:54:41;;;;;;;0.55;0.55;;;16.90;70.90;;;;;;5056031;28;20036;-79
2021/05/10 08:57:06;;;;;;;0.43;0.43;;;17.00;70.70;;;;;;5038405;28;20056;-78
2021/05/10 08:59:32;;;;;;;0.40;0.40;;;17.10;70.30;;;;;;5049025;28;20060;-78
2021/05/10 09:02:03;;;;;;;0.40;0.40;;;17.30;70.10;;;;;;5046090;28;20041;-76
2021/05/10 09:04:35;;;;;;;0.40;0.40;;;17.30;69.90;;;;;;5056012;28;20017;-78
2021/05/10 09:07:20;;;;;;;0.30;0.30;;;17.40;69.90;;;;;;5055857;28;20548;-78
2021/05/10 09:09:59;;;;;;;0.60;0.60;;;17.40;69.90;;;;;;5053157;28;20060;-82
2021/05/10 09:12:49;;;;;;;0.75;0.75;;;17.40;69.80;;;;;;5036133;28;20025;-84
2021/05/10 09:15:31;;;;;;;1.15;0.65;;;17.50;70.30;;;;;;5048322;28;20035;-82
2021/05/10 09:18:01;;;;;;;0.70;0.70;;;17.60;69.50;;;;;;5055538;28;20025;-79
2021/05/10 09:20:30;;;;;;;0.85;0.85;;;17.70;69.10;;;;;;5055694;28;20519;-81
2021/05/10 09:23:01;;;;;;;0.77;0.77;;;17.80;69.10;;;;;;5055523;28;20033;-77
2021/05/10 09:25:34;;;;;;;1.15;0.80;;;17.80;69.00;;;;;;5055413;28;20522;-79
2021/05/10 09:28:21;;;;;;;0.90;0.90;;;17.80;69.00;;;;;;5055696;28;20033;-79
2021/05/10 09:30:55;;;;;;;0.90;0.80;;;17.90;68.90;;;;;;5053721;28;20535;-79
2021/05/10 09:33:25;;;;;;;0.50;0.50;;;17.90;69.50;;;;;;5055534;28;20028;-79
2021/05/10 09:35:52;;;;;;;0.65;0.65;;;18.00;68.70;;;;;;5037524;28;20068;-77
2021/05/10 09:38:23;;;;;;;0.70;0.70;;;18.20;68.40;;;;;;5055317;28;20070;-77
2021/05/10 09:40:54;;;;;;;0.88;0.50;;;18.30;68.20;;;;;;5055295;28;20431;-75
2021/05/10 09:43:23;;;;;;;0.57;0.52;;;18.50;68.10;;;;;;5055478;28;20021;-78
2021/05/10 09:45:51;;;;;;;0.52;0.52;;;18.50;67.90;;;;;;5052693;28;20020;-77
2021/05/10 09:48:19;;;;;;;0.50;0.50;;;18.60;68.50;;;;;;5055115;28;20021;-76
2021/05/10 09:50:55;;;;;;;0.60;0.60;;;18.60;67.90;;;;;;5055047;28;20064;-77
2021/05/10 09:53:33;;;;;;;0.43;0.43;;;18.60;67.80;;;;;;5047771;28;20120;-76
2021/05/10 09:55:59;;;;;;;0.73;0.60;;;18.70;67.70;;;;;;5035008;28;20034;-78
2021/05/10 09:58:36;;;;;;;0.80;0.80;;;18.60;67.80;;;;;;5016655;28;20437;-77
2021/05/10 10:01:02;;;;;;;0.80;0.80;;;18.50;68.10;;;;;;5035038;28;20029;-77
2021/05/10 10:03:35;;;;;;;1.75;0.70;;;18.50;68.20;;;;;;5034974;28;20017;-77
2021/05/10 10:06:03;;;;;;;0.80;0.77;;;18.50;68.30;;;;;;5034947;28;20028;-76
2021/05/10 10:08:29;;;;;;;0.60;0.60;;;18.50;68.10;;;;;;5034616;28;20028;-78
2021/05/10 10:10:56;;;;;;;0.85;0.85;;;18.50;68.10;;;;;;5040134;28;20029;-76
2021/05/10 10:13:22;;;;;;;1.25;0.70;;;18.40;68.10;;;;;;5036273;28;20424;-78
2021/05/10 10:15:48;;;;;;;0.60;0.60;;;18.40;68.20;;;;;;5054307;28;20080;-76
2021/05/10 10:18:21;;;;;;;0.57;0.40;;;18.30;68.40;;;;;;5150456;23;20129;-78
2021/05/10 10:20:48;;;;;;;0.68;0.57;;;18.30;68.50;;;;;;5057829;28;20029;-78
2021/05/10 10:23:16;;;;;;;0.52;0.52;;;18.20;68.70;;;;;;5054394;28;20021;-76
2021/05/10 10:25:43;;;;;;;0.70;0.45;;;18.10;68.80;;;;;;5054467;28;20380;-81
2021/05/10 10:28:09;;;;;;;0.73;0.70;;;17.90;69.00;;;;;;5054354;28;20096;-86
2021/05/10 10:30:41;;;;;;;0.38;0.38;;;17.80;69.30;;;;;;5054853;28;20029;-86
2021/05/10 10:33:11;;;;;;;0.40;0.40;;;17.60;69.40;;;;;;5053623;28;20031;-85
2021/05/10 10:35:43;;;;;;;0.47;0.47;;;17.50;69.80;;;;;;5054109;28;20033;-82
2021/05/10 10:38:10;;;;;;;0.65;0.65;;;17.40;69.90;;;;;;5050151;28;20021;-83
2021/05/10 10:40:36;;;;;;;1.02;1.00;;;17.20;70.30;;;;;;5054054;28;20021;-85
2021/05/10 10:43:23;;;;;;;1.15;1.00;;;17.00;70.70;;;;;;5054013;28;20016;-81
2021/05/10 10:46:15;;;;;;;0.80;0.57;;;16.70;71.00;;;;;;5053973;28;20024;-81
2021/05/10 10:48:40;;;;;;;0.70;0.70;;;16.70;71.20;;;;;;5059360;28;20047;-84
2021/05/10 10:51:07;;;;;;;0.50;0.50;;;16.70;71.20;;;;;;5075188;28;20028;-86
2021/05/10 10:53:44;;;;;;;0.88;0.82;;;16.80;71.20;;;;;;5048781;28;20111;-86
2021/05/10 10:56:10;;;;;;;0.68;0.68;;;16.80;71.10;;;;;;5052520;28;20551;-85
2021/05/10 10:58:39;;;;;;;0.70;0.70;;;16.80;71.00;;;;;;5033715;28;20120;-85
2021/05/10 11:01:23;;;;;;;0.70;0.70;;;16.80;71.00;;;;;;5052514;28;20421;-86
2021/05/10 11:03:52;;;;;;;0.65;0.65;;;17.00;71.00;;;;;;5052087;28;20473;-86
2021/05/10 11:06:18;;;;;;;0.65;0.65;;;17.10;70.80;;;;;;5047816;28;20108;-86
2021/05/10 11:08:54;;;;;;;0.63;0.63;;;17.10;70.80;;;;;;5044674;28;20148;-87
2021/05/10 11:11:36;;;;;;;1.58;0.73;;;17.10;70.80;;;;;;5049675;28;20021;-85
2021/05/10 11:14:02;;;;;;;0.70;0.70;;;17.10;71.00;;;;;;5054711;28;20025;-84
2021/05/10 11:16:55;;;;;;;0.77;0.77;;;17.20;71.00;;;;;;5054342;28;20037;-84
2021/05/10 11:19:38;;;;;;;0.80;0.80;;;17.20;70.80;;;;;;5048989;28;20135;-84
2021/05/10 11:22:30;;;;;;;1.15;0.82;;;17.20;71.10;;;;;;5054591;28;20021;-88
2021/05/10 11:24:56;;;;;;;1.17;1.17;;;17.00;71.40;;;;;;5046329;28;20063;-85
2021/05/10 11:27:26;;;;;;;0.63;0.63;;;16.80;71.90;;;;;;5053810;28;20361;-86
2021/05/10 11:29:51;;;;;;;1.00;1.00;;;16.70;72.30;;;;;;5053754;28;20082;-86
2021/05/10 11:32:21;;;;;;;1.10;1.00;;;16.50;72.60;;;;;;5054088;28;20028;-85
2021/05/10 11:34:48;;;;;;;0.93;0.93;;;16.40;73.10;;;;;;5054600;28;20469;-87
2021/05/10 11:37:21;;;;;;;1.25;1.13;;;16.20;73.30;;;;;;5054464;28;20440;-86
2021/05/10 11:39:47;;;;;;;1.08;0.88;;;16.10;73.70;;;;;;5053234;28;20017;-87
2021/05/10 11:42:13;;;;;;;0.82;0.80;;;15.90;73.90;;;;;;5054033;28;20035;-85
2021/05/10 11:44:41;;;;;;;0.80;0.80;;;15.70;74.40;;;;;;5053573;28;20025;-81
2021/05/10 11:47:07;;;;;;;1.48;1.20;;;15.40;74.70;;;;;;5035732;28;20028;-80
2021/05/10 11:49:38;;;;;;;1.15;0.95;;;15.30;75.20;;;;;;5053019;28;20029;-82
2021/05/10 11:52:09;;;;;;;0.88;0.88;;;15.10;75.40;;;;;;5052907;28;20032;-81
2021/05/10 11:54:37;;;;;;;1.02;0.70;;;15.20;75.40;;;;;;5034180;28;20036;-83
2021/05/10 11:57:05;;;;;;;0.90;0.90;;;15.30;74.90;;;;;;5052974;28;20511;-81
2021/05/10 11:59:49;;;;;;;0.80;0.80;;;15.50;74.40;;;;;;5053042;28;20522;-84
2021/05/10 12:02:26;;;;;;;0.50;0.50;;;15.80;74.00;;;;;;5052946;28;20071;-82
2021/05/10 12:05:03;;;;;;;0.70;0.70;;;15.90;73.40;;;;;;5052945;28;20041;-83
2021/05/10 12:07:31;;;;;;;1.20;0.70;;;16.00;73.50;;;;;;5052939;28;20368;-82
2021/05/10 12:10:02;;;;;;;1.00;0.52;;;16.20;73.10;;;;;;5052471;28;20025;-80
2021/05/10 12:12:30;;;;;;;0.63;0.63;;;16.40;73.10;;;;;;5059957;28;20028;-83
2021/05/10 12:15:08;;;;;;;0.80;0.63;;;17.10;72.50;;;;;;5056778;28;20064;-82
2021/05/10 12:17:34;;;;;;;0.40;0.40;;;17.80;71.20;;;;;;5054865;28;20600;-82
2021/05/10 12:20:02;;;;;;;0.40;0.40;;;18.00;70.70;;;;;;5055014;28;20055;-82
2021/05/10 12:22:28;;;;;;;0.50;0.50;;;18.30;70.40;;;;;;5072689;28;20029;-82
2021/05/10 12:25:06;;;;;;;0.80;0.80;;;18.60;70.40;;;;;;5072273;28;20025;-81
2021/05/10 12:27:37;;;;;;;0.70;0.70;;;19.00;69.90;;;;;;5073007;28;20553;-85
2021/05/10 12:30:20;;;;;;;0.85;0.68;;;19.50;69.00;;;;;;5073122;28;20029;-83
2021/05/10 12:32:49;;;;;;;0.73;0.73;;;20.00;68.50;;;;;;5073122;28;20016;-81
2021/05/10 12:35:43;;;;;;;0.70;0.70;;;20.50;67.90;;;;;;5054678;28;20074;-81
2021/05/10 12:38:09;;;;;;;1.40;0.70;;;20.90;67.50;;;;;;5067784;28;20462;-81
2021/05/10 12:40:43;;;;;;;0.90;0.90;;;21.50;66.50;;;;;;5072593;28;20036;-82
2021/05/10 12:43:12;;;;;;;0.68;0.68;;;21.50;66.50;;;;;;5072663;28;20025;-83
2021/05/10 12:45:40;;;;;;;0.53;0.53;;;21.10;67.10;;;;;;5072607;28;20499;-82
2021/05/10 12:48:14;;;;;;;0.82;0.60;;;20.80;67.90;;;;;;5052831;28;20851;-82
2021/05/10 12:50:49;;;;;;;1.10;1.00;;;20.70;68.30;;;;;;5035108;28;20083;-81
2021/05/10 12:53:15;;;;;;;0.70;0.70;;;20.50;68.50;;;;;;5051969;28;20044;-82
2021/05/10 12:55:41;;;;;;;1.08;0.70;;;20.30;69.20;;;;;;5052634;28;20119;-83